sensor_id;sensor_type;location;lat;lon;timestamp;temperature;humidity
39951;DHT22;25629;51.444;-2.606;2023-05-10T00:01:05;12.00;99.90
39951;DHT22;25629;51.444;-2.606;2023-05-10T00:03:31;12.00;99.90
39951;DHT22;25629;51.444;-2.606;2023-05-10T00:05:57;12.00;99.90
39951;DHT22;25629;51.444;-2.606;2023-05-10T00:08:22;12.10;99.90
39951;DHT22;25629;51.444;-2.606;2023-05-10T00:10:48;12.10;99.90
39951;DHT22;25629;51.444;-2.606;2023-05-10T00:13:14;12.10;99.90
39951;DHT22;25629;51.444;-2.606;2023-05-10T00:15:39;12.10;99.90
39951;DHT22;25629;51.444;-2.606;2023-05-10T00:18:05;12.10;99.90
39951;DHT22;25629;51.444;-2.606;2023-05-10T00:20:30;12.10;99.90
39951;DHT22;25629;51.444;-2.606;2023-05-10T00:22:56;12.10;99.90
39951;DHT22;25629;51.444;-2.606;2023-05-10T00:25:21;12.10;99.90
39951;DHT22;25629;51.444;-2.606;2023-05-10T00:27:47;12.00;99.90
39951;DHT22;25629;51.444;-2.606;2023-05-10T00:30:13;12.00;99.90
39951;DHT22;25629;51.444;-2.606;2023-05-10T00:32:38;12.00;99.90
39951;DHT22;25629;51.444;-2.606;2023-05-10T00:35:04;12.10;99.90
39951;DHT22;25629;51.444;-2.606;2023-05-10T00:37:30;12.10;99.90
39951;DHT22;25629;51.444;-2.606;2023-05-10T00:39:55;12.20;99.90
39951;DHT22;25629;51.444;-2.606;2023-05-10T00:42:21;12.20;99.90
39951;DHT22;25629;51.444;-2.606;2023-05-10T00:44:47;12.30;99.90
39951;DHT22;25629;51.444;-2.606;2023-05-10T00:47:13;12.20;99.90
39951;DHT22;25629;51.444;-2.606;2023-05-10T00:49:38;12.20;99.90
39951;DHT22;25629;51.444;-2.606;2023-05-10T00:52:04;12.30;99.90
39951;DHT22;25629;51.444;-2.606;2023-05-10T00:54:30;12.20;99.90
39951;DHT22;25629;51.444;-2.606;2023-05-10T00:56:55;12.20;99.90
39951;DHT22;25629;51.444;-2.606;2023-05-10T00:59:22;12.10;99.90
39951;DHT22;25629;51.444;-2.606;2023-05-10T01:01:47;12.20;99.90
39951;DHT22;25629;51.444;-2.606;2023-05-10T01:04:13;12.20;99.90
39951;DHT22;25629;51.444;-2.606;2023-05-10T01:06:40;12.20;99.90
39951;DHT22;25629;51.444;-2.606;2023-05-10T01:09:06;12.20;99.90
39951;DHT22;25629;51.444;-2.606;2023-05-10T01:11:35;12.30;99.90
39951;DHT22;25629;51.444;-2.606;2023-05-10T01:14:02;12.20;99.90
39951;DHT22;25629;51.444;-2.606;2023-05-10T01:16:27;12.20;99.90
39951;DHT22;25629;51.444;-2.606;2023-05-10T01:18:54;12.20;99.90
39951;DHT22;25629;51.444;-2.606;2023-05-10T01:21:28;12.20;99.90
39951;DHT22;25629;51.444;-2.606;2023-05-10T01:24:14;12.20;99.90
39951;DHT22;25629;51.444;-2.606;2023-05-10T01:34:22;12.20;99.90
39951;DHT22;25629;51.444;-2.606;2023-05-10T01:36:58;12.10;99.90
39951;DHT22;25629;51.444;-2.606;2023-05-10T01:39:28;12.10;99.90
39951;DHT22;25629;51.444;-2.606;2023-05-10T01:46:48;12.10;99.90
39951;DHT22;25629;51.444;-2.606;2023-05-10T01:49:23;12.00;99.90
39951;DHT22;25629;51.444;-2.606;2023-05-10T01:51:51;12.00;99.90
39951;DHT22;25629;51.444;-2.606;2023-05-10T01:54:20;11.90;99.90
39951;DHT22;25629;51.444;-2.606;2023-05-10T01:56:50;11.90;99.90
39951;DHT22;25629;51.444;-2.606;2023-05-10T01:59:18;11.90;99.90
39951;DHT22;25629;51.444;-2.606;2023-05-10T02:01:45;11.90;99.90
39951;DHT22;25629;51.444;-2.606;2023-05-10T02:04:11;11.90;99.90
39951;DHT22;25629;51.444;-2.606;2023-05-10T02:06:38;11.90;99.90
39951;DHT22;25629;51.444;-2.606;2023-05-10T02:12:07;11.90;99.90
39951;DHT22;25629;51.444;-2.606;2023-05-10T02:14:35;11.80;99.90
39951;DHT22;25629;51.444;-2.606;2023-05-10T02:17:02;11.80;99.90
39951;DHT22;25629;51.444;-2.606;2023-05-10T02:19:29;11.80;99.90
39951;DHT22;25629;51.444;-2.606;2023-05-10T02:21:55;11.80;99.90
39951;DHT22;25629;51.444;-2.606;2023-05-10T02:24:21;11.80;99.90
39951;DHT22;25629;51.444;-2.606;2023-05-10T02:26:47;11.80;99.90
39951;DHT22;25629;51.444;-2.606;2023-05-10T02:29:15;11.80;99.90
39951;DHT22;25629;51.444;-2.606;2023-05-10T02:31:41;11.90;99.90
39951;DHT22;25629;51.444;-2.606;2023-05-10T02:34:08;11.80;99.90
39951;DHT22;25629;51.444;-2.606;2023-05-10T02:36:35;11.90;99.90
39951;DHT22;25629;51.444;-2.606;2023-05-10T02:39:01;11.90;99.90
39951;DHT22;25629;51.444;-2.606;2023-05-10T02:41:27;12.00;99.90
39951;DHT22;25629;51.444;-2.606;2023-05-10T02:43:55;12.00;99.90
39951;DHT22;25629;51.444;-2.606;2023-05-10T02:46:22;12.00;99.90
39951;DHT22;25629;51.444;-2.606;2023-05-10T02:48:48;12.00;99.90
39951;DHT22;25629;51.444;-2.606;2023-05-10T02:51:14;12.10;99.90
39951;DHT22;25629;51.444;-2.606;2023-05-10T02:53:43;12.10;99.90
39951;DHT22;25629;51.444;-2.606;2023-05-10T02:56:11;12.10;99.90
39951;DHT22;25629;51.444;-2.606;2023-05-10T02:58:38;12.10;99.90
39951;DHT22;25629;51.444;-2.606;2023-05-10T03:01:04;12.10;99.90
39951;DHT22;25629;51.444;-2.606;2023-05-10T03:03:29;12.10;99.90
39951;DHT22;25629;51.444;-2.606;2023-05-10T03:05:55;12.00;99.90
39951;DHT22;25629;51.444;-2.606;2023-05-10T03:08:22;12.00;99.90
39951;DHT22;25629;51.444;-2.606;2023-05-10T03:10:53;12.00;99.90
39951;DHT22;25629;51.444;-2.606;2023-05-10T03:13:39;12.00;99.90
39951;DHT22;25629;51.444;-2.606;2023-05-10T03:16:14;11.90;99.90
39951;DHT22;25629;51.444;-2.606;2023-05-10T03:18:42;11.90;99.90
39951;DHT22;25629;51.444;-2.606;2023-05-10T03:21:10;11.90;99.90
39951;DHT22;25629;51.444;-2.606;2023-05-10T03:23:47;11.90;99.90
39951;DHT22;25629;51.444;-2.606;2023-05-10T03:26:25;11.80;99.90
39951;DHT22;25629;51.444;-2.606;2023-05-10T03:28:51;11.90;99.90
39951;DHT22;25629;51.444;-2.606;2023-05-10T03:31:17;11.90;99.90
39951;DHT22;25629;51.444;-2.606;2023-05-10T03:33:50;11.90;99.90
39951;DHT22;25629;51.444;-2.606;2023-05-10T03:36:16;11.80;99.90
39951;DHT22;25629;51.444;-2.606;2023-05-10T03:38:42;11.90;99.90
39951;DHT22;25629;51.444;-2.606;2023-05-10T03:41:07;11.90;99.90
39951;DHT22;25629;51.444;-2.606;2023-05-10T03:43:33;11.90;99.90
39951;DHT22;25629;51.444;-2.606;2023-05-10T03:45:58;11.90;99.90
39951;DHT22;25629;51.444;-2.606;2023-05-10T03:48:26;11.90;99.90
39951;DHT22;25629;51.444;-2.606;2023-05-10T03:50:52;11.80;99.90
39951;DHT22;25629;51.444;-2.606;2023-05-10T03:53:17;11.80;99.90
39951;DHT22;25629;51.444;-2.606;2023-05-10T03:55:43;11.80;99.90
39951;DHT22;25629;51.444;-2.606;2023-05-10T03:58:11;11.80;99.90
39951;DHT22;25629;51.444;-2.606;2023-05-10T04:00:37;11.70;99.90
39951;DHT22;25629;51.444;-2.606;2023-05-10T04:03:09;11.70;99.90
39951;DHT22;25629;51.444;-2.606;2023-05-10T04:05:35;11.70;99.90
39951;DHT22;25629;51.444;-2.606;2023-05-10T04:08:00;11.70;99.90
39951;DHT22;25629;51.444;-2.606;2023-05-10T04:10:26;11.70;99.90
39951;DHT22;25629;51.444;-2.606;2023-05-10T04:12:51;11.70;99.90
39951;DHT22;25629;51.444;-2.606;2023-05-10T04:15:17;11.60;99.90
39951;DHT22;25629;51.444;-2.606;2023-05-10T04:17:42;11.60;99.90
39951;DHT22;25629;51.444;-2.606;2023-05-10T04:20:08;11.60;99.90
39951;DHT22;25629;51.444;-2.606;2023-05-10T04:22:34;11.60;99.90
39951;DHT22;25629;51.444;-2.606;2023-05-10T04:24:59;11.60;99.90
39951;DHT22;25629;51.444;-2.606;2023-05-10T04:27:25;11.60;99.90
39951;DHT22;25629;51.444;-2.606;2023-05-10T04:29:51;11.60;99.90
39951;DHT22;25629;51.444;-2.606;2023-05-10T04:32:16;11.60;99.90
39951;DHT22;25629;51.444;-2.606;2023-05-10T04:34:43;11.70;99.90
39951;DHT22;25629;51.444;-2.606;2023-05-10T04:37:08;11.70;99.90
39951;DHT22;25629;51.444;-2.606;2023-05-10T04:39:34;11.70;99.90
39951;DHT22;25629;51.444;-2.606;2023-05-10T04:42:00;11.70;99.90
39951;DHT22;25629;51.444;-2.606;2023-05-10T04:44:28;11.80;99.90
39951;DHT22;25629;51.444;-2.606;2023-05-10T04:46:53;11.80;99.90
39951;DHT22;25629;51.444;-2.606;2023-05-10T04:49:19;12.00;99.90
39951;DHT22;25629;51.444;-2.606;2023-05-10T04:51:45;12.00;99.90
39951;DHT22;25629;51.444;-2.606;2023-05-10T04:54:10;12.10;99.90
39951;DHT22;25629;51.444;-2.606;2023-05-10T04:56:36;12.20;99.90
39951;DHT22;25629;51.444;-2.606;2023-05-10T04:59:01;12.20;99.90
39951;DHT22;25629;51.444;-2.606;2023-05-10T05:01:27;12.20;99.90
39951;DHT22;25629;51.444;-2.606;2023-05-10T05:03:53;12.30;99.90
39951;DHT22;25629;51.444;-2.606;2023-05-10T05:06:19;12.40;99.90
39951;DHT22;25629;51.444;-2.606;2023-05-10T05:08:46;12.30;99.90
39951;DHT22;25629;51.444;-2.606;2023-05-10T05:11:11;12.30;99.90
39951;DHT22;25629;51.444;-2.606;2023-05-10T05:13:37;12.20;99.90
39951;DHT22;25629;51.444;-2.606;2023-05-10T05:16:03;12.30;99.90
39951;DHT22;25629;51.444;-2.606;2023-05-10T05:18:28;12.30;99.90
39951;DHT22;25629;51.444;-2.606;2023-05-10T05:20:54;12.40;99.90
39951;DHT22;25629;51.444;-2.606;2023-05-10T05:23:20;12.50;99.90
39951;DHT22;25629;51.444;-2.606;2023-05-10T05:25:46;12.60;99.90
39951;DHT22;25629;51.444;-2.606;2023-05-10T05:28:11;12.60;99.90
39951;DHT22;25629;51.444;-2.606;2023-05-10T05:30:37;12.70;99.90
39951;DHT22;25629;51.444;-2.606;2023-05-10T05:33:03;12.70;99.90
39951;DHT22;25629;51.444;-2.606;2023-05-10T05:35:28;12.70;99.90
39951;DHT22;25629;51.444;-2.606;2023-05-10T05:37:54;12.70;99.90
39951;DHT22;25629;51.444;-2.606;2023-05-10T05:40:19;12.70;99.90
39951;DHT22;25629;51.444;-2.606;2023-05-10T05:42:45;12.70;99.90
39951;DHT22;25629;51.444;-2.606;2023-05-10T05:45:11;12.70;99.90
39951;DHT22;25629;51.444;-2.606;2023-05-10T05:47:38;12.80;99.90
39951;DHT22;25629;51.444;-2.606;2023-05-10T05:50:04;12.90;99.90
39951;DHT22;25629;51.444;-2.606;2023-05-10T05:52:30;12.90;99.90
39951;DHT22;25629;51.444;-2.606;2023-05-10T05:54:55;12.90;99.90
39951;DHT22;25629;51.444;-2.606;2023-05-10T05:57:21;12.90;99.90
39951;DHT22;25629;51.444;-2.606;2023-05-10T05:59:47;13.00;99.90
39951;DHT22;25629;51.444;-2.606;2023-05-10T06:02:12;13.00;99.90
39951;DHT22;25629;51.444;-2.606;2023-05-10T06:04:38;13.10;99.90
39951;DHT22;25629;51.444;-2.606;2023-05-10T06:07:03;13.10;99.90
39951;DHT22;25629;51.444;-2.606;2023-05-10T06:09:29;13.20;99.90
39951;DHT22;25629;51.444;-2.606;2023-05-10T06:11:54;13.40;99.90
39951;DHT22;25629;51.444;-2.606;2023-05-10T06:14:20;13.50;99.90
39951;DHT22;25629;51.444;-2.606;2023-05-10T06:16:46;13.60;99.90
39951;DHT22;25629;51.444;-2.606;2023-05-10T06:19:11;13.70;99.90
39951;DHT22;25629;51.444;-2.606;2023-05-10T06:21:37;13.80;99.90
39951;DHT22;25629;51.444;-2.606;2023-05-10T06:24:03;13.90;99.90
39951;DHT22;25629;51.444;-2.606;2023-05-10T06:26:28;14.00;99.90
39951;DHT22;25629;51.444;-2.606;2023-05-10T06:28:54;14.10;99.90
39951;DHT22;25629;51.444;-2.606;2023-05-10T06:31:19;14.10;99.90
39951;DHT22;25629;51.444;-2.606;2023-05-10T06:33:45;14.20;99.90
39951;DHT22;25629;51.444;-2.606;2023-05-10T06:36:11;14.20;99.90
39951;DHT22;25629;51.444;-2.606;2023-05-10T06:38:36;14.20;99.90
39951;DHT22;25629;51.444;-2.606;2023-05-10T06:41:02;14.30;99.90
39951;DHT22;25629;51.444;-2.606;2023-05-10T06:43:28;14.40;99.90
39951;DHT22;25629;51.444;-2.606;2023-05-10T06:45:54;14.40;99.90
39951;DHT22;25629;51.444;-2.606;2023-05-10T06:48:21;14.30;99.90
39951;DHT22;25629;51.444;-2.606;2023-05-10T06:50:46;14.40;99.90
39951;DHT22;25629;51.444;-2.606;2023-05-10T06:53:12;14.40;99.90
39951;DHT22;25629;51.444;-2.606;2023-05-10T06:55:38;14.30;99.90
39951;DHT22;25629;51.444;-2.606;2023-05-10T06:58:04;14.20;99.90
39951;DHT22;25629;51.444;-2.606;2023-05-10T07:00:29;14.10;99.90
39951;DHT22;25629;51.444;-2.606;2023-05-10T07:02:55;14.00;99.90
39951;DHT22;25629;51.444;-2.606;2023-05-10T07:05:21;14.10;99.90
39951;DHT22;25629;51.444;-2.606;2023-05-10T07:07:47;14.10;99.90
39951;DHT22;25629;51.444;-2.606;2023-05-10T07:10:12;14.30;99.90
39951;DHT22;25629;51.444;-2.606;2023-05-10T07:12:38;14.30;99.90
39951;DHT22;25629;51.444;-2.606;2023-05-10T07:15:04;14.30;99.90
39951;DHT22;25629;51.444;-2.606;2023-05-10T07:17:30;14.40;99.90
39951;DHT22;25629;51.444;-2.606;2023-05-10T07:19:55;14.60;99.90
39951;DHT22;25629;51.444;-2.606;2023-05-10T07:22:21;14.70;99.90
39951;DHT22;25629;51.444;-2.606;2023-05-10T07:24:47;14.60;99.90
39951;DHT22;25629;51.444;-2.606;2023-05-10T07:27:12;14.70;99.90
39951;DHT22;25629;51.444;-2.606;2023-05-10T07:29:38;14.70;99.90
39951;DHT22;25629;51.444;-2.606;2023-05-10T07:32:04;14.60;99.90
39951;DHT22;25629;51.444;-2.606;2023-05-10T07:34:30;14.60;99.90
39951;DHT22;25629;51.444;-2.606;2023-05-10T07:36:58;14.70;99.90
39951;DHT22;25629;51.444;-2.606;2023-05-10T07:39:23;14.80;99.90
39951;DHT22;25629;51.444;-2.606;2023-05-10T07:41:49;14.80;99.90
39951;DHT22;25629;51.444;-2.606;2023-05-10T07:44:14;14.90;99.40
39951;DHT22;25629;51.444;-2.606;2023-05-10T07:46:40;14.90;99.90
39951;DHT22;25629;51.444;-2.606;2023-05-10T07:49:05;14.80;98.90
39951;DHT22;25629;51.444;-2.606;2023-05-10T07:51:31;14.70;99.90
39951;DHT22;25629;51.444;-2.606;2023-05-10T07:53:57;14.70;99.90
39951;DHT22;25629;51.444;-2.606;2023-05-10T07:56:26;14.70;99.90
39951;DHT22;25629;51.444;-2.606;2023-05-10T07:58:58;14.50;99.90
39951;DHT22;25629;51.444;-2.606;2023-05-10T08:01:24;14.30;99.90
39951;DHT22;25629;51.444;-2.606;2023-05-10T08:03:49;14.10;99.90
39951;DHT22;25629;51.444;-2.606;2023-05-10T08:06:16;14.10;99.90
39951;DHT22;25629;51.444;-2.606;2023-05-10T08:08:42;13.90;99.90
39951;DHT22;25629;51.444;-2.606;2023-05-10T08:11:08;13.80;99.90
39951;DHT22;25629;51.444;-2.606;2023-05-10T08:13:33;13.70;99.90
39951;DHT22;25629;51.444;-2.606;2023-05-10T08:15:59;13.70;99.90
39951;DHT22;25629;51.444;-2.606;2023-05-10T08:18:24;13.80;99.90
39951;DHT22;25629;51.444;-2.606;2023-05-10T08:20:50;13.90;99.90
39951;DHT22;25629;51.444;-2.606;2023-05-10T08:23:15;13.90;99.90
39951;DHT22;25629;51.444;-2.606;2023-05-10T08:25:41;13.80;99.90
39951;DHT22;25629;51.444;-2.606;2023-05-10T08:28:06;13.70;99.90
39951;DHT22;25629;51.444;-2.606;2023-05-10T08:30:32;13.70;99.90
39951;DHT22;25629;51.444;-2.606;2023-05-10T08:32:58;13.70;99.90
39951;DHT22;25629;51.444;-2.606;2023-05-10T08:35:23;13.90;99.90
39951;DHT22;25629;51.444;-2.606;2023-05-10T08:37:50;14.10;99.90
39951;DHT22;25629;51.444;-2.606;2023-05-10T08:40:16;14.20;99.90
39951;DHT22;25629;51.444;-2.606;2023-05-10T08:42:45;14.60;99.90
39951;DHT22;25629;51.444;-2.606;2023-05-10T08:45:14;14.70;99.90
39951;DHT22;25629;51.444;-2.606;2023-05-10T08:47:41;14.90;99.90
39951;DHT22;25629;51.444;-2.606;2023-05-10T08:50:06;15.00;99.90
39951;DHT22;25629;51.444;-2.606;2023-05-10T08:52:32;15.10;99.90
39951;DHT22;25629;51.444;-2.606;2023-05-10T08:54:58;15.20;99.90
39951;DHT22;25629;51.444;-2.606;2023-05-10T08:57:24;15.30;99.90
39951;DHT22;25629;51.444;-2.606;2023-05-10T08:59:50;15.50;99.90
39951;DHT22;25629;51.444;-2.606;2023-05-10T09:02:15;15.60;99.90
39951;DHT22;25629;51.444;-2.606;2023-05-10T09:04:42;15.60;95.70
39951;DHT22;25629;51.444;-2.606;2023-05-10T09:07:08;15.70;93.60
39951;DHT22;25629;51.444;-2.606;2023-05-10T09:09:33;15.70;95.90
39951;DHT22;25629;51.444;-2.606;2023-05-10T09:12:00;15.80;98.10
39951;DHT22;25629;51.444;-2.606;2023-05-10T09:14:25;15.60;95.20
39951;DHT22;25629;51.444;-2.606;2023-05-10T09:16:51;15.40;98.60
39951;DHT22;25629;51.444;-2.606;2023-05-10T09:19:19;15.30;99.90
39951;DHT22;25629;51.444;-2.606;2023-05-10T09:21:44;15.20;99.90
39951;DHT22;25629;51.444;-2.606;2023-05-10T09:24:10;15.20;99.90
39951;DHT22;25629;51.444;-2.606;2023-05-10T09:26:45;15.10;99.90
39951;DHT22;25629;51.444;-2.606;2023-05-10T09:29:11;15.00;99.90
39951;DHT22;25629;51.444;-2.606;2023-05-10T09:34:15;15.20;99.90
39951;DHT22;25629;51.444;-2.606;2023-05-10T09:36:55;15.40;99.90
39951;DHT22;25629;51.444;-2.606;2023-05-10T09:39:29;15.40;99.90
39951;DHT22;25629;51.444;-2.606;2023-05-10T09:41:55;15.40;97.70
39951;DHT22;25629;51.444;-2.606;2023-05-10T09:44:20;15.40;97.00
39951;DHT22;25629;51.444;-2.606;2023-05-10T09:46:49;15.50;94.80
39951;DHT22;25629;51.444;-2.606;2023-05-10T09:49:16;15.50;91.60
39951;DHT22;25629;51.444;-2.606;2023-05-10T09:51:41;15.40;91.50
39951;DHT22;25629;51.444;-2.606;2023-05-10T09:54:10;15.40;90.70
39951;DHT22;25629;51.444;-2.606;2023-05-10T09:56:37;15.60;90.80
39951;DHT22;25629;51.444;-2.606;2023-05-10T09:59:04;16.20;90.20
39951;DHT22;25629;51.444;-2.606;2023-05-10T10:01:30;17.00;57.60
39951;DHT22;25629;51.444;-2.606;2023-05-10T10:03:56;17.10;31.00
39951;DHT22;25629;51.444;-2.606;2023-05-10T10:06:24;17.10;24.80
39951;DHT22;25629;51.444;-2.606;2023-05-10T10:08:51;17.00;23.40
39951;DHT22;25629;51.444;-2.606;2023-05-10T10:11:16;16.90;19.40
39951;DHT22;25629;51.444;-2.606;2023-05-10T10:13:42;16.70;48.30
39951;DHT22;25629;51.444;-2.606;2023-05-10T10:16:08;16.90;31.00
39951;DHT22;25629;51.444;-2.606;2023-05-10T10:18:33;16.90;39.90
39951;DHT22;25629;51.444;-2.606;2023-05-10T10:21:06;17.00;43.60
39951;DHT22;25629;51.444;-2.606;2023-05-10T10:23:34;17.20;26.10
39951;DHT22;25629;51.444;-2.606;2023-05-10T10:26:00;17.40;1.00
39951;DHT22;25629;51.444;-2.606;2023-05-10T10:30:54;17.70;1.00
39951;DHT22;25629;51.444;-2.606;2023-05-10T10:35:57;17.50;1.00
39951;DHT22;25629;51.444;-2.606;2023-05-10T10:38:23;17.40;1.00
39951;DHT22;25629;51.444;-2.606;2023-05-10T10:41:01;17.20;1.00
39951;DHT22;25629;51.444;-2.606;2023-05-10T10:43:27;16.90;1.00
39951;DHT22;25629;51.444;-2.606;2023-05-10T10:46:12;16.70;1.00
39951;DHT22;25629;51.444;-2.606;2023-05-10T10:48:49;16.60;1.00
39951;DHT22;25629;51.444;-2.606;2023-05-10T10:51:15;16.80;1.00
39951;DHT22;25629;51.444;-2.606;2023-05-10T10:53:40;16.80;1.00
39951;DHT22;25629;51.444;-2.606;2023-05-10T10:56:07;16.90;1.00
39951;DHT22;25629;51.444;-2.606;2023-05-10T10:58:33;17.10;1.00
39951;DHT22;25629;51.444;-2.606;2023-05-10T11:01:15;17.20;1.00
39951;DHT22;25629;51.444;-2.606;2023-05-10T11:03:41;17.20;1.00
39951;DHT22;25629;51.444;-2.606;2023-05-10T11:06:28;17.10;1.00
39951;DHT22;25629;51.444;-2.606;2023-05-10T11:08:54;16.90;1.00
39951;DHT22;25629;51.444;-2.606;2023-05-10T11:11:20;16.70;1.00
39951;DHT22;25629;51.444;-2.606;2023-05-10T11:13:46;16.70;1.00
39951;DHT22;25629;51.444;-2.606;2023-05-10T11:16:15;16.70;1.00
39951;DHT22;25629;51.444;-2.606;2023-05-10T11:18:51;16.70;1.00
39951;DHT22;25629;51.444;-2.606;2023-05-10T11:21:17;16.60;1.00
39951;DHT22;25629;51.444;-2.606;2023-05-10T11:26:08;16.60;1.00
39951;DHT22;25629;51.444;-2.606;2023-05-10T11:28:46;16.80;1.00
39951;DHT22;25629;51.444;-2.606;2023-05-10T11:31:18;17.10;1.00
39951;DHT22;25629;51.444;-2.606;2023-05-10T11:36:14;17.50;1.00
39951;DHT22;25629;51.444;-2.606;2023-05-10T11:38:39;17.60;1.00
39951;DHT22;25629;51.444;-2.606;2023-05-10T11:41:05;17.70;99.90
39951;DHT22;25629;51.444;-2.606;2023-05-10T11:43:33;17.90;99.90
39951;DHT22;25629;51.444;-2.606;2023-05-10T11:45:58;18.00;1.00
39951;DHT22;25629;51.444;-2.606;2023-05-10T11:48:24;18.10;99.90
39951;DHT22;25629;51.444;-2.606;2023-05-10T11:50:50;18.20;1.00
39951;DHT22;25629;51.444;-2.606;2023-05-10T11:53:15;18.30;99.90
39951;DHT22;25629;51.444;-2.606;2023-05-10T11:55:41;18.40;1.00
39951;DHT22;25629;51.444;-2.606;2023-05-10T11:58:06;18.40;99.90
39951;DHT22;25629;51.444;-2.606;2023-05-10T12:00:32;18.20;99.90
39951;DHT22;25629;51.444;-2.606;2023-05-10T12:02:58;18.10;99.90
39951;DHT22;25629;51.444;-2.606;2023-05-10T12:05:23;17.90;1.00
39951;DHT22;25629;51.444;-2.606;2023-05-10T12:07:49;17.90;99.90
39951;DHT22;25629;51.444;-2.606;2023-05-10T12:10:15;17.70;1.00
39951;DHT22;25629;51.444;-2.606;2023-05-10T12:12:43;17.60;1.00
39951;DHT22;25629;51.444;-2.606;2023-05-10T12:15:12;17.60;99.90
39951;DHT22;25629;51.444;-2.606;2023-05-10T12:17:42;17.70;1.00
39951;DHT22;25629;51.444;-2.606;2023-05-10T12:20:21;17.90;99.90
39951;DHT22;25629;51.444;-2.606;2023-05-10T12:22:51;17.90;99.90
39951;DHT22;25629;51.444;-2.606;2023-05-10T12:25:20;18.00;49.00
39951;DHT22;25629;51.444;-2.606;2023-05-10T12:27:56;17.80;1.00
39951;DHT22;25629;51.444;-2.606;2023-05-10T12:30:23;17.60;99.90
39951;DHT22;25629;51.444;-2.606;2023-05-10T12:32:49;17.80;1.00
39951;DHT22;25629;51.444;-2.606;2023-05-10T12:35:15;18.20;99.90
39951;DHT22;25629;51.444;-2.606;2023-05-10T12:37:42;18.70;6.00
39951;DHT22;25629;51.444;-2.606;2023-05-10T12:40:08;18.80;99.90
39951;DHT22;25629;51.444;-2.606;2023-05-10T12:42:35;18.90;99.90
39951;DHT22;25629;51.444;-2.606;2023-05-10T12:45:04;18.80;99.90
39951;DHT22;25629;51.444;-2.606;2023-05-10T12:47:29;18.80;99.90
39951;DHT22;25629;51.444;-2.606;2023-05-10T12:49:55;18.90;99.90
39951;DHT22;25629;51.444;-2.606;2023-05-10T12:52:21;19.20;74.90
39951;DHT22;25629;51.444;-2.606;2023-05-10T12:54:46;19.70;99.90
39951;DHT22;25629;51.444;-2.606;2023-05-10T12:57:12;19.70;99.90
39951;DHT22;25629;51.444;-2.606;2023-05-10T12:59:38;19.40;99.90
39951;DHT22;25629;51.444;-2.606;2023-05-10T13:02:04;19.10;99.90
39951;DHT22;25629;51.444;-2.606;2023-05-10T13:04:29;19.20;1.00
39951;DHT22;25629;51.444;-2.606;2023-05-10T13:06:55;19.40;1.00
39951;DHT22;25629;51.444;-2.606;2023-05-10T13:09:24;19.80;1.00
39951;DHT22;25629;51.444;-2.606;2023-05-10T13:11:50;19.90;99.90
39951;DHT22;25629;51.444;-2.606;2023-05-10T13:14:16;20.10;99.90
39951;DHT22;25629;51.444;-2.606;2023-05-10T13:16:41;20.30;99.90
39951;DHT22;25629;51.444;-2.606;2023-05-10T13:19:07;20.50;1.00
39951;DHT22;25629;51.444;-2.606;2023-05-10T13:21:33;20.50;1.00
39951;DHT22;25629;51.444;-2.606;2023-05-10T13:23:58;20.20;1.00
39951;DHT22;25629;51.444;-2.606;2023-05-10T13:26:25;19.80;1.00
39951;DHT22;25629;51.444;-2.606;2023-05-10T13:28:50;19.90;1.00
39951;DHT22;25629;51.444;-2.606;2023-05-10T13:31:16;20.10;1.00
39951;DHT22;25629;51.444;-2.606;2023-05-10T13:33:42;20.10;1.00
39951;DHT22;25629;51.444;-2.606;2023-05-10T13:36:08;20.00;99.90
39951;DHT22;25629;51.444;-2.606;2023-05-10T13:38:33;20.00;99.90
39951;DHT22;25629;51.444;-2.606;2023-05-10T13:40:59;20.30;99.90
39951;DHT22;25629;51.444;-2.606;2023-05-10T13:43:24;20.40;99.90
39951;DHT22;25629;51.444;-2.606;2023-05-10T13:45:50;20.90;99.90
39951;DHT22;25629;51.444;-2.606;2023-05-10T13:48:15;21.00;99.90
39951;DHT22;25629;51.444;-2.606;2023-05-10T13:50:41;21.00;99.90
39951;DHT22;25629;51.444;-2.606;2023-05-10T13:53:06;21.10;99.90
39951;DHT22;25629;51.444;-2.606;2023-05-10T13:55:32;20.90;99.90
39951;DHT22;25629;51.444;-2.606;2023-05-10T13:57:58;21.00;99.90
39951;DHT22;25629;51.444;-2.606;2023-05-10T14:00:23;21.20;99.90
39951;DHT22;25629;51.444;-2.606;2023-05-10T14:02:49;21.30;99.90
39951;DHT22;25629;51.444;-2.606;2023-05-10T14:05:14;21.50;67.00
39951;DHT22;25629;51.444;-2.606;2023-05-10T14:07:40;21.10;78.40
39951;DHT22;25629;51.444;-2.606;2023-05-10T14:10:06;20.90;88.80
39951;DHT22;25629;51.444;-2.606;2023-05-10T14:12:32;21.20;87.30
39951;DHT22;25629;51.444;-2.606;2023-05-10T14:14:57;21.90;80.40
39951;DHT22;25629;51.444;-2.606;2023-05-10T14:17:23;22.10;40.90
39951;DHT22;25629;51.444;-2.606;2023-05-10T14:19:49;21.90;16.90
39951;DHT22;25629;51.444;-2.606;2023-05-10T14:22:14;21.40;8.90
39951;DHT22;25629;51.444;-2.606;2023-05-10T14:24:40;20.90;33.30
39951;DHT22;25629;51.444;-2.606;2023-05-10T14:27:05;20.40;67.20
39951;DHT22;25629;51.444;-2.606;2023-05-10T14:29:31;20.40;84.50
39951;DHT22;25629;51.444;-2.606;2023-05-10T14:31:57;21.00;70.80
39951;DHT22;25629;51.444;-2.606;2023-05-10T14:34:22;21.50;54.90
39951;DHT22;25629;51.444;-2.606;2023-05-10T14:36:48;21.60;50.50
39951;DHT22;25629;51.444;-2.606;2023-05-10T14:39:14;21.60;14.70
39951;DHT22;25629;51.444;-2.606;2023-05-10T14:41:39;21.60;4.40
39951;DHT22;25629;51.444;-2.606;2023-05-10T14:44:08;21.70;11.50
39951;DHT22;25629;51.444;-2.606;2023-05-10T14:46:33;21.30;6.60
39951;DHT22;25629;51.444;-2.606;2023-05-10T14:48:59;21.00;25.30
39951;DHT22;25629;51.444;-2.606;2023-05-10T14:51:25;21.00;17.70
39951;DHT22;25629;51.444;-2.606;2023-05-10T14:53:50;20.80;8.50
39951;DHT22;25629;51.444;-2.606;2023-05-10T14:56:16;21.10;7.90
39951;DHT22;25629;51.444;-2.606;2023-05-10T14:58:41;21.30;4.30
39951;DHT22;25629;51.444;-2.606;2023-05-10T15:01:07;21.70;5.50
39951;DHT22;25629;51.444;-2.606;2023-05-10T15:03:32;21.70;1.00
39951;DHT22;25629;51.444;-2.606;2023-05-10T15:05:58;21.90;1.00
39951;DHT22;25629;51.444;-2.606;2023-05-10T15:08:24;22.10;1.00
39951;DHT22;25629;51.444;-2.606;2023-05-10T15:10:53;21.60;1.00
39951;DHT22;25629;51.444;-2.606;2023-05-10T15:13:20;21.40;1.00
39951;DHT22;25629;51.444;-2.606;2023-05-10T15:15:46;21.60;1.00
39951;DHT22;25629;51.444;-2.606;2023-05-10T15:18:11;22.10;1.00
39951;DHT22;25629;51.444;-2.606;2023-05-10T15:20:37;22.00;1.00
39951;DHT22;25629;51.444;-2.606;2023-05-10T15:23:02;22.10;1.00
39951;DHT22;25629;51.444;-2.606;2023-05-10T15:25:28;22.30;1.00
39951;DHT22;25629;51.444;-2.606;2023-05-10T15:27:54;22.40;1.00
39951;DHT22;25629;51.444;-2.606;2023-05-10T15:30:19;22.30;1.00
39951;DHT22;25629;51.444;-2.606;2023-05-10T15:32:45;22.30;1.00
39951;DHT22;25629;51.444;-2.606;2023-05-10T15:35:11;22.30;1.00
39951;DHT22;25629;51.444;-2.606;2023-05-10T15:37:37;22.70;1.00
39951;DHT22;25629;51.444;-2.606;2023-05-10T15:40:02;22.40;1.00
39951;DHT22;25629;51.444;-2.606;2023-05-10T15:42:31;22.80;1.00
39951;DHT22;25629;51.444;-2.606;2023-05-10T15:44:57;23.00;1.00